Lucille Brooks — WDG5458 — position and weather

sailwx.info

Track history (hours):
 
Tides and Currents Weather Stations Pressure Air Temp Water Temp Dewpoint Dewpoint Depression Visibility Wind Speed Wind Dir Waves Ship Positions

Lucille Brooks

Owner: Kirby Inland Marine, LP, Houston, TX. More information available from US FCC via Universal Licensing System and Coast Guard Vessel Documentation Center.

Last reported at 2018-May-21 04:13 UTC. Time now 2018-May-21 07:04 UTC.
Position N 29°46' W 095°05'.

Length 109 m; draft 3 m.

Type: . MMSI: 367024990.

Date/timePositionNaut miles runAvg speedWind from/ knotsBaromVisibWave heightAir tempDewpointWater temp
2018-May-21 04:13N 29°46' W 095°05'1 2.9
2018-May-21 03:56N 29°46' W 095°06'0 0.5
2018-May-21 03:29N 29°46' W 095°07'1 0.1
2018-May-19 23:34N 29°46' W 095°05'3 5.0
2018-May-19 23:04N 29°44' W 095°03'0 0.4
2018-May-19 23:00N 29°44' W 095°03'2 3.3
2018-May-19 22:26N 29°43' W 095°01'2 4.0
2018-May-19 22:00N 29°42' W 094°60'3 5.7
2018-May-19 21:30N 29°39' W 094°58'2 3.8
2018-May-19 21:00N 29°41' W 094°59'3 5.2
2018-May-19 20:23N 29°44' W 095°01'2 4.9
2018-May-19 20:00N 29°44' W 095°03'3 0.2
2018-May-19 04:41N 29°47' W 095°04'1 4.0
2018-May-19 04:19N 29°46' W 095°05'2 4.0
2018-May-19 03:51N 29°44' W 095°03'1 4.0
2018-May-19 03:29N 29°44' W 095°02'2 3.6
2018-May-19 03:00N 29°42' W 095°01'2 3.4
2018-May-19 02:30N 29°43' W 095°03'0 0.0
2018-May-18 12:49N 29°43' W 095°03'2 4.9
2018-May-18 12:30N 29°42' W 095°02'2 3.9
2018-May-18 12:00N 29°44' W 095°03'3 5.6
2018-May-18 11:25N 29°46' W 095°06'0 0.7
2018-May-18 10:48N 29°46' W 095°06'0 0.0
2018-May-18 10:28N 29°46' W 095°06'0 1.0
2018-May-18 09:59N 29°46' W 095°06'2 3.5
2018-May-18 09:30N 29°46' W 095°04'0 0.0
2018-May-18 09:00N 29°46' W 095°04'0 0.0
2018-May-18 08:30N 29°46' W 095°04'0 0.0
2018-May-18 08:00N 29°46' W 095°04'0 0.0
2018-May-18 07:30N 29°46' W 095°04'0 0.0
2018-May-18 07:01N 29°46' W 095°04'0 0.0
2018-May-18 06:30N 29°46' W 095°04'0 0.0
2018-May-18 06:00N 29°46' W 095°04'0 0.0
2018-May-18 05:30N 29°46' W 095°04'0 0.0
2018-May-18 05:00N 29°46' W 095°04'0 0.0
2018-May-18 04:30N 29°46' W 095°04'1 1.5
2018-May-18 04:01N 29°46' W 095°05'1 1.0
2018-May-18 03:29N 29°47' W 095°04'0 0.0
2018-May-18 02:57N 29°47' W 095°04'0 0.0
2018-May-18 02:24N 29°47' W 095°04'3 0.7
2018-May-17 22:25N 29°45' W 095°06'1 0.1
2018-May-17 12:36N 29°46' W 095°06'0 3.2
2018-May-17 12:29N 29°46' W 095°06'2 4.9
2018-May-17 11:59N 29°44' W 095°08'2 5.0
2018-May-17 11:30N 29°45' W 095°10'1 0.6
2018-May-17 10:15N 29°45' W 095°11'1 1.4
2018-May-17 09:35N 29°45' W 095°10'0 0.7
2018-May-17 09:25N 29°45' W 095°10'1 2.6
2018-May-17 09:00N 29°44' W 095°09'3 4.7
2018-May-17 08:25N 29°45' W 095°06'2 3.9
2018-May-17 07:58N 29°46' W 095°04'2 4.1
2018-May-17 07:30N 29°44' W 095°03'1 2.5
2018-May-17 06:58N 29°44' W 095°01'0 0.2
2018-May-17 06:30N 29°44' W 095°01'0 0.0
2018-May-17 05:57N 29°44' W 095°01'0 0.0
2018-May-17 05:30N 29°44' W 095°01'0 0.0
2018-May-17 05:00N 29°44' W 095°01'0 0.1
2018-May-17 04:30N 29°44' W 095°01'2 4.5
2018-May-17 04:00N 29°45' W 095°04'2 4.4
2018-May-17 03:30N 29°45' W 095°06'3 6.1
2018-May-17 03:00N 29°45' W 095°10'0 0.9
2018-May-17 02:29N 29°45' W 095°10'0 0.1
2018-May-17 01:55N 29°45' W 095°10'2 5.2
2018-May-17 01:30N 29°44' W 095°08'5 0.4
2018-May-16 14:11N 29°48' W 095°04'0 0.1
2018-May-16 13:50N 29°48' W 095°04'0 0.9
2018-May-16 13:29N 29°47' W 095°04'0 0.0
2018-May-16 12:59N 29°47' W 095°04'0 0.1
2018-May-16 12:30N 29°47' W 095°04'0 0.5
2018-May-16 12:00N 29°47' W 095°04'1 2.2
2018-May-16 11:30N 29°46' W 095°05'1 2.9
2018-May-16 11:00N 29°46' W 095°06'0 0.4
2018-May-16 10:28N 29°46' W 095°07'0 0.3
2018-May-16 09:59N 29°46' W 095°06'1 1.8
2018-May-16 09:28N 29°46' W 095°05'1 1.2
2018-May-16 09:00N 29°46' W 095°05'3 5.7
2018-May-16 08:30N 29°44' W 095°02'3 5.4
2018-May-16 08:00N 29°42' W 095°00'3 5.8
2018-May-16 07:30N 29°40' W 094°58'3 6.1
2018-May-16 07:00N 29°37' W 094°57'3 6.1
2018-May-16 06:30N 29°34' W 094°55'3 6.0
2018-May-16 06:00N 29°32' W 094°53'3 5.8
2018-May-16 05:30N 29°29' W 094°52'3 5.9
2018-May-16 05:00N 29°27' W 094°50'3 5.7
2018-May-16 04:30N 29°24' W 094°49'2 4.5
2018-May-16 04:00N 29°22' W 094°47'1 2.9
2018-May-16 03:31N 29°23' W 094°46'2 3.6
2018-May-16 03:00N 29°25' W 094°44'3 5.0
2018-May-16 02:26N 29°26' W 094°42'1 2.3
2018-May-16 02:00N 29°27' W 094°41'3 5.4
2018-May-16 01:30N 29°28' W 094°38'4 7.2
2018-May-16 01:00N 29°30' W 094°34'4 7.2
2018-May-16 00:30N 29°31' W 094°31'2 4.0
2018-May-16 00:00N 29°32' W 094°29'2 5.0
2018-May-15 23:30N 29°34' W 094°27'3 5.5
2018-May-15 22:58N 29°36' W 094°24'3 4.8
2018-May-15 22:16N 29°37' W 094°21'2 5.1
2018-May-15 21:55N 29°38' W 094°19'3 6.0
2018-May-15 21:23N 29°39' W 094°15'2 6.0
2018-May-15 21:00N 29°40' W 094°13'3 5.9
2018-May-15 20:30N 29°41' W 094°10'3 6.1
2018-May-15 20:00N 29°43' W 094°07'3 6.2
2018-May-15 19:30N 29°45' W 094°04'3 6.3
2018-May-15 19:00N 29°47' W 094°01'3 6.2
2018-May-15 18:30N 29°49' W 093°59'3 5.4
2018-May-15 18:00N 29°51' W 093°57'3 6.9
2018-May-15 17:31N 29°54' W 093°54'4 7.0
2018-May-15 17:01N 29°57' W 093°52'3 5.7
2018-May-15 16:30N 29°59' W 093°50'3 6.6
2018-May-15 16:00N 30°00' W 093°46'3 6.6
2018-May-15 15:30N 30°03' W 093°44'3 6.2
2018-May-15 15:00N 30°04' W 093°40'3 5.9
2018-May-15 14:30N 30°04' W 093°37'3 6.4
2018-May-15 14:00N 30°04' W 093°33'3 6.4
2018-May-15 13:30N 30°04' W 093°30'3 6.6
2018-May-15 13:00N 30°04' W 093°26'3 6.5
2018-May-15 12:30N 30°04' W 093°22'3 5.5
2018-May-15 12:00N 30°05' W 093°20'3 5.7
2018-May-15 11:30N 30°08' W 093°20'3 5.5
2018-May-15 11:00N 30°11' W 093°19'3 6.2
2018-May-15 10:30N 30°12' W 093°16'1 1.7
2018-May-15 10:00N 30°13' W 093°15'0 0.0
2018-May-15 09:24N 30°13' W 093°15'0 0.0
2018-May-15 05:18N 30°13' W 093°15'0 0.0
2018-May-15 04:42N 30°13' W 093°15'0 0.0
2018-May-15 03:12N 30°13' W 093°15'0 0.0
2018-May-15 03:00N 30°13' W 093°15'0 0.0
2018-May-15 02:24N 30°13' W 093°15'0 0.0
2018-May-15 02:00N 30°13' W 093°15'0 0.0
2018-May-15 01:30N 30°13' W 093°15'0 0.0
2018-May-15 01:00N 30°13' W 093°15'0 0.0
2018-May-15 00:30N 30°13' W 093°15'0 0.0
2018-May-15 00:00N 30°13' W 093°15'0 0.0
2018-May-14 23:30N 30°13' W 093°15'0 0.0
2018-May-14 22:51N 30°13' W 093°15'0 0.0
2018-May-14 22:30N 30°13' W 093°15'0 0.0
2018-May-14 21:48N 30°13' W 093°15'0 0.0
2018-May-14 21:27N 30°13' W 093°15'0 0.0
2018-May-14 20:57N 30°13' W 093°15'0 0.0
2018-May-14 20:27N 30°13' W 093°15'0 0.0
2018-May-14 19:39N 30°13' W 093°15'0 0.0
2018-May-14 19:27N 30°13' W 093°15'0 0.0
2018-May-14 18:57N 30°13' W 093°15'0 0.0
2018-May-14 18:24N 30°13' W 093°15'0 0.0
2018-May-14 16:56N 30°13' W 093°15'0 0.4
2018-May-14 16:30N 30°13' W 093°15'2 4.0
2018-May-14 16:00N 30°12' W 093°17'3 5.2
2018-May-14 15:30N 30°10' W 093°19'2 4.6
2018-May-14 15:01N 30°08' W 093°20'3 5.3
2018-May-14 14:30N 30°05' W 093°20'2 4.2
2018-May-14 14:01N 30°04' W 093°21'0 1.0
2018-May-14 13:30N 30°04' W 093°22'0 0.0
2018-May-14 13:00N 30°04' W 093°22'0 0.0
2018-May-14 12:30N 30°04' W 093°22'0 0.0
2018-May-14 11:54N 30°04' W 093°22'0 0.0
2018-May-14 11:27N 30°04' W 093°22'0 0.0
2018-May-14 11:00N 30°04' W 093°22'0 0.0
2018-May-14 10:30N 30°04' W 093°22'0 0.0
2018-May-14 10:00N 30°04' W 093°22'0 0.0
2018-May-14 09:27N 30°04' W 093°22'0 0.0
2018-May-14 09:00N 30°04' W 093°22'0 0.0
2018-May-14 08:30N 30°04' W 093°22'0 0.0
2018-May-14 08:00N 30°04' W 093°22'0 0.0
2018-May-14 07:30N 30°04' W 093°22'0 0.0
2018-May-14 07:00N 30°04' W 093°22'0 0.0
2018-May-14 06:30N 30°04' W 093°22'0 0.0
2018-May-14 06:00N 30°04' W 093°22'0 0.0
2018-May-14 05:30N 30°04' W 093°22'0 0.0
2018-May-14 05:00N 30°04' W 093°22'0 0.0
2018-May-14 04:30N 30°04' W 093°22'0 0.0
2018-May-14 04:00N 30°04' W 093°22'0 0.0
2018-May-14 03:30N 30°04' W 093°22'0 0.0
2018-May-14 03:00N 30°04' W 093°22'0 0.0
2018-May-14 02:30N 30°04' W 093°22'0 0.0
2018-May-14 02:00N 30°04' W 093°22'0 0.0
2018-May-14 01:30N 30°04' W 093°22'0 0.0
2018-May-14 01:00N 30°04' W 093°22'0 0.0
2018-May-14 00:30N 30°04' W 093°22'0 0.0
2018-May-14 00:00N 30°04' W 093°22'0 0.0
2018-May-13 23:30N 30°04' W 093°22'0 0.0
2018-May-13 23:00N 30°04' W 093°22'0 0.0
2018-May-13 22:30N 30°04' W 093°22'0 0.0
2018-May-13 22:00N 30°04' W 093°22'0 0.0
2018-May-13 21:30N 30°04' W 093°22'0 0.0
2018-May-13 20:57N 30°04' W 093°22'0 0.0
2018-May-13 20:30N 30°04' W 093°22'0 0.0
2018-May-13 20:00N 30°04' W 093°22'0 0.0
2018-May-13 19:30N 30°04' W 093°22'0 0.0
2018-May-13 19:00N 30°04' W 093°22'0 0.0
2018-May-13 18:30N 30°04' W 093°22'0 0.0
2018-May-13 17:57N 30°04' W 093°22'0 0.0
2018-May-13 17:30N 30°04' W 093°22'0 0.0
2018-May-13 16:57N 30°04' W 093°22'0 0.0
2018-May-13 16:30N 30°04' W 093°22'0 0.0
2018-May-13 16:00N 30°04' W 093°22'0 0.0
2018-May-13 15:30N 30°04' W 093°22'0 0.0
2018-May-13 15:00N 30°04' W 093°22'0 0.0
2018-May-13 14:30N 30°04' W 093°22'0 0.0
2018-May-13 14:00N 30°04' W 093°22'0 0.0
2018-May-13 13:30N 30°04' W 093°22'0 0.0
2018-May-13 13:00N 30°04' W 093°22'0 0.0
2018-May-13 12:30N 30°04' W 093°22'0 0.3
2018-May-13 12:00N 30°04' W 093°22'0 0.3
2018-May-13 11:25N 30°04' W 093°22'0 0.0
2018-May-13 10:58N 30°04' W 093°22'0 0.0
2018-May-13 10:28N 30°04' W 093°22'0 0.0
2018-May-13 09:58N 30°04' W 093°22'0 0.0
2018-May-13 09:28N 30°04' W 093°22'0 0.0
2018-May-13 08:58N 30°04' W 093°22'0 0.0
2018-May-13 08:25N 30°04' W 093°22'0 0.0
2018-May-13 07:58N 30°04' W 093°22'0 0.0
2018-May-13 07:28N 30°04' W 093°22'0 0.0
2018-May-13 06:58N 30°04' W 093°22'0 0.0
2018-May-13 06:28N 30°04' W 093°22'0 0.0
2018-May-13 05:58N 30°04' W 093°22'0 0.0
2018-May-13 05:28N 30°04' W 093°22'0 0.0
2018-May-13 04:58N 30°04' W 093°22'0 0.0
2018-May-13 04:28N 30°04' W 093°22'0 0.0
2018-May-13 03:58N 30°04' W 093°22'0 0.0
2018-May-13 03:28N 30°04' W 093°22'0 0.0
2018-May-13 02:58N 30°04' W 093°22'0 0.0
2018-May-13 02:28N 30°04' W 093°22'0 0.0
2018-May-13 01:58N 30°04' W 093°22'0 0.0
2018-May-13 01:28N 30°04' W 093°22'0 0.0
2018-May-13 00:58N 30°04' W 093°22'0 0.0
2018-May-13 00:28N 30°04' W 093°22'0 0.0
2018-May-12 23:58N 30°04' W 093°22'0 0.0
2018-May-12 23:28N 30°04' W 093°22'0 0.0
2018-May-12 22:58N 30°04' W 093°22'0 0.0
2018-May-12 22:28N 30°04' W 093°22'0 0.0
2018-May-12 21:58N 30°04' W 093°22'0 0.0
2018-May-12 21:28N 30°04' W 093°22'0 0.0
2018-May-12 20:58N 30°04' W 093°22'0 0.0
2018-May-12 20:28N 30°04' W 093°22'0 0.0
2018-May-12 19:58N 30°04' W 093°22'0 0.0
2018-May-12 19:28N 30°04' W 093°22'0 0.0
2018-May-12 18:58N 30°04' W 093°22'0 0.0
2018-May-12 18:28N 30°04' W 093°22'0 0.0
2018-May-12 17:58N 30°04' W 093°22'0 0.0
2018-May-12 17:28N 30°04' W 093°22'0 0.0
2018-May-12 16:58N 30°04' W 093°22'0 0.0
2018-May-12 16:28N 30°04' W 093°22'0 0.0
2018-May-12 16:00N 30°04' W 093°22'0 0.0
2018-May-12 15:30N 30°04' W 093°22'0 0.8
2018-May-12 14:58N 30°04' W 093°21'0 0.9
2018-May-12 14:28N 30°04' W 093°22'0 0.0
2018-May-12 13:58N 30°04' W 093°22'0 0.0
2018-May-12 13:25N 30°04' W 093°22'0 0.0
2018-May-12 12:58N 30°04' W 093°22'0 0.0
2018-May-12 12:28N 30°04' W 093°22'0 0.0
2018-May-12 11:58N 30°04' W 093°22'0 0.0
2018-May-12 11:28N 30°04' W 093°22'0 0.0
2018-May-12 10:43N 30°04' W 093°22'0 0.0
2018-May-12 10:25N 30°04' W 093°22'0 0.0
2018-May-12 09:52N 30°04' W 093°22'0 0.0
2018-May-12 09:25N 30°04' W 093°22'0 0.0
2018-May-12 08:58N 30°04' W 093°22'0 0.0
2018-May-12 08:31N 30°04' W 093°22'0 0.0
2018-May-12 08:01N 30°04' W 093°22'0 0.0
2018-May-12 07:31N 30°04' W 093°22'0 0.0
2018-May-12 06:55N 30°04' W 093°22'0 0.0
2018-May-12 06:25N 30°04' W 093°22'0 0.0
2018-May-12 05:55N 30°04' W 093°22'0 0.0
2018-May-12 05:28N 30°04' W 093°22'0 0.0
2018-May-12 05:01N 30°04' W 093°22'0 0.0
2018-May-12 04:25N 30°04' W 093°22'0 0.0
2018-May-12 04:01N 30°04' W 093°22'0 0.0
2018-May-12 03:31N 30°04' W 093°22'0 0.0
2018-May-12 03:01N 30°04' W 093°22'0 0.0
2018-May-12 02:31N 30°04' W 093°22'0 0.0
2018-May-12 01:58N 30°04' W 093°22'0 0.0
2018-May-12 01:31N 30°04' W 093°22'0 0.0
2018-May-12 01:01N 30°04' W 093°22'0 0.0
2018-May-12 00:31N 30°04' W 093°22'0 0.0
2018-May-12 00:01N 30°04' W 093°22'0 0.0
2018-May-11 23:31N 30°04' W 093°22'0 0.0
2018-May-11 23:01N 30°04' W 093°22'0 0.2
2018-May-11 22:31N 30°04' W 093°22'0 0.6
2018-May-11 21:58N 30°04' W 093°21'0 0.0
2018-May-11 21:28N 30°04' W 093°21'0 0.0
2018-May-11 20:58N 30°04' W 093°21'0 0.0
2018-May-11 20:28N 30°04' W 093°21'0 0.0
2018-May-11 19:58N 30°04' W 093°21'0 0.0
2018-May-11 19:28N 30°04' W 093°21'0 0.0
2018-May-11 18:58N 30°04' W 093°21'0 0.0
2018-May-11 18:28N 30°04' W 093°21'0 0.7
2018-May-11 18:00N 30°04' W 093°22'0 0.2
2018-May-11 17:29N 30°04' W 093°22'0 0.0
2018-May-11 16:56N 30°04' W 093°22'0 0.0
2018-May-11 16:29N 30°04' W 093°22'0 0.1
2018-May-11 15:58N 30°04' W 093°22'2 5.2
2018-May-11 15:30N 30°05' W 093°20'2 3.4
2018-May-11 15:00N 30°06' W 093°18'0 0.0
2018-May-11 14:30N 30°06' W 093°18'0 0.0
2018-May-11 14:00N 30°06' W 093°18'2 4.3
2018-May-11 13:30N 30°05' W 093°20'2 3.7
2018-May-11 12:58N 30°04' W 093°22'0 0.0
2018-May-11 12:28N 30°04' W 093°22'0 0.0
2018-May-11 11:58N 30°04' W 093°22'0 0.0
2018-May-11 11:28N 30°04' W 093°22'0 0.0
2018-May-11 10:58N 30°04' W 093°22'0 0.0
2018-May-11 10:28N 30°04' W 093°22'0 0.0
2018-May-11 09:58N 30°04' W 093°22'0 0.0
2018-May-11 09:28N 30°04' W 093°22'0 0.0
2018-May-11 08:58N 30°04' W 093°22'0 0.0
2018-May-11 08:28N 30°04' W 093°22'0 0.0
2018-May-11 07:58N 30°04' W 093°22'0 0.0
2018-May-11 07:28N 30°04' W 093°22'0 0.0
2018-May-11 06:58N 30°04' W 093°22'0 0.0
2018-May-11 06:25N 30°04' W 093°22'0 0.0
2018-May-11 05:55N 30°04' W 093°22'0 0.0
2018-May-11 05:28N 30°04' W 093°22'0 0.0
2018-May-11 04:58N 30°04' W 093°22'0 0.0
2018-May-11 04:28N 30°04' W 093°22'  
Track history (hours):
 
Tides and Currents Weather Stations Pressure Air Temp Water Temp Dewpoint Dewpoint Depression Visibility Wind Speed Wind Dir Waves Ship Positions

Lucille Brooks

Owner: Kirby Inland Marine, LP, Houston, TX. More information available from US FCC via Universal Licensing System and Coast Guard Vessel Documentation Center.

Last reported at 2018-May-21 04:13 UTC. Time now 2018-May-21 07:04 UTC.
Position N 29°46' W 095°05'.

Length 109 m; draft 3 m.

Type: . MMSI: 367024990.

Date/timePositionNaut miles runAvg speedWind from/ knotsBaromVisibWave heightAir tempDewpointWater temp
2018-May-21 04:13N 29°46' W 095°05'1 2.9
2018-May-21 03:56N 29°46' W 095°06'0 0.5
2018-May-21 03:29N 29°46' W 095°07'1 0.1
2018-May-19 23:34N 29°46' W 095°05'3 5.0
2018-May-19 23:04N 29°44' W 095°03'0 0.4
2018-May-19 23:00N 29°44' W 095°03'2 3.3
2018-May-19 22:26N 29°43' W 095°01'2 4.0
2018-May-19 22:00N 29°42' W 094°60'3 5.7
2018-May-19 21:30N 29°39' W 094°58'2 3.8
2018-May-19 21:00N 29°41' W 094°59'3 5.2
2018-May-19 20:23N 29°44' W 095°01'2 4.9
2018-May-19 20:00N 29°44' W 095°03'3 0.2
2018-May-19 04:41N 29°47' W 095°04'1 4.0
2018-May-19 04:19N 29°46' W 095°05'2 4.0
2018-May-19 03:51N 29°44' W 095°03'1 4.0
2018-May-19 03:29N 29°44' W 095°02'2 3.6
2018-May-19 03:00N 29°42' W 095°01'2 3.4
2018-May-19 02:30N 29°43' W 095°03'0 0.0
2018-May-18 12:49N 29°43' W 095°03'2 4.9
2018-May-18 12:30N 29°42' W 095°02'2 3.9
2018-May-18 12:00N 29°44' W 095°03'3 5.6
2018-May-18 11:25N 29°46' W 095°06'0 0.7
2018-May-18 10:48N 29°46' W 095°06'0 0.0
2018-May-18 10:28N 29°46' W 095°06'0 1.0
2018-May-18 09:59N 29°46' W 095°06'2 3.5
2018-May-18 09:30N 29°46' W 095°04'0 0.0
2018-May-18 09:00N 29°46' W 095°04'0 0.0
2018-May-18 08:30N 29°46' W 095°04'0 0.0
2018-May-18 08:00N 29°46' W 095°04'0 0.0
2018-May-18 07:30N 29°46' W 095°04'0 0.0
2018-May-18 07:01N 29°46' W 095°04'0 0.0
2018-May-18 06:30N 29°46' W 095°04'0 0.0
2018-May-18 06:00N 29°46' W 095°04'0 0.0
2018-May-18 05:30N 29°46' W 095°04'0 0.0
2018-May-18 05:00N 29°46' W 095°04'0 0.0
2018-May-18 04:30N 29°46' W 095°04'1 1.5
2018-May-18 04:01N 29°46' W 095°05'1 1.0
2018-May-18 03:29N 29°47' W 095°04'0 0.0
2018-May-18 02:57N 29°47' W 095°04'0 0.0
2018-May-18 02:24N 29°47' W 095°04'3 0.7
2018-May-17 22:25N 29°45' W 095°06'1 0.1
2018-May-17 12:36N 29°46' W 095°06'0 3.2
2018-May-17 12:29N 29°46' W 095°06'2 4.9
2018-May-17 11:59N 29°44' W 095°08'2 5.0
2018-May-17 11:30N 29°45' W 095°10'1 0.6
2018-May-17 10:15N 29°45' W 095°11'1 1.4
2018-May-17 09:35N 29°45' W 095°10'0 0.7
2018-May-17 09:25N 29°45' W 095°10'1 2.6
2018-May-17 09:00N 29°44' W 095°09'3 4.7
2018-May-17 08:25N 29°45' W 095°06'2 3.9
2018-May-17 07:58N 29°46' W 095°04'2 4.1
2018-May-17 07:30N 29°44' W 095°03'1 2.5
2018-May-17 06:58N 29°44' W 095°01'0 0.2
2018-May-17 06:30N 29°44' W 095°01'0 0.0
2018-May-17 05:57N 29°44' W 095°01'0 0.0
2018-May-17 05:30N 29°44' W 095°01'0 0.0
2018-May-17 05:00N 29°44' W 095°01'0 0.1
2018-May-17 04:30N 29°44' W 095°01'2 4.5
2018-May-17 04:00N 29°45' W 095°04'2 4.4
2018-May-17 03:30N 29°45' W 095°06'3 6.1
2018-May-17 03:00N 29°45' W 095°10'0 0.9
2018-May-17 02:29N 29°45' W 095°10'0 0.1
2018-May-17 01:55N 29°45' W 095°10'2 5.2
2018-May-17 01:30N 29°44' W 095°08'5 0.4
2018-May-16 14:11N 29°48' W 095°04'0 0.1
2018-May-16 13:50N 29°48' W 095°04'0 0.9
2018-May-16 13:29N 29°47' W 095°04'0 0.0
2018-May-16 12:59N 29°47' W 095°04'0 0.1
2018-May-16 12:30N 29°47' W 095°04'0 0.5
2018-May-16 12:00N 29°47' W 095°04'1 2.2
2018-May-16 11:30N 29°46' W 095°05'1 2.9
2018-May-16 11:00N 29°46' W 095°06'0 0.4
2018-May-16 10:28N 29°46' W 095°07'0 0.3
2018-May-16 09:59N 29°46' W 095°06'1 1.8
2018-May-16 09:28N 29°46' W 095°05'1 1.2
2018-May-16 09:00N 29°46' W 095°05'3 5.7
2018-May-16 08:30N 29°44' W 095°02'3 5.4
2018-May-16 08:00N 29°42' W 095°00'3 5.8
2018-May-16 07:30N 29°40' W 094°58'3 6.1
2018-May-16 07:00N 29°37' W 094°57'3 6.1
2018-May-16 06:30N 29°34' W 094°55'3 6.0
2018-May-16 06:00N 29°32' W 094°53'3 5.8
2018-May-16 05:30N 29°29' W 094°52'3 5.9
2018-May-16 05:00N 29°27' W 094°50'3 5.7
2018-May-16 04:30N 29°24' W 094°49'2 4.5
2018-May-16 04:00N 29°22' W 094°47'1 2.9
2018-May-16 03:31N 29°23' W 094°46'2 3.6
2018-May-16 03:00N 29°25' W 094°44'3 5.0
2018-May-16 02:26N 29°26' W 094°42'1 2.3
2018-May-16 02:00N 29°27' W 094°41'3 5.4
2018-May-16 01:30N 29°28' W 094°38'4 7.2
2018-May-16 01:00N 29°30' W 094°34'4 7.2
2018-May-16 00:30N 29°31' W 094°31'2 4.0
2018-May-16 00:00N 29°32' W 094°29'2 5.0
2018-May-15 23:30N 29°34' W 094°27'3 5.5
2018-May-15 22:58N 29°36' W 094°24'3 4.8
2018-May-15 22:16N 29°37' W 094°21'2 5.1
2018-May-15 21:55N 29°38' W 094°19'3 6.0
2018-May-15 21:23N 29°39' W 094°15'2 6.0
2018-May-15 21:00N 29°40' W 094°13'3 5.9
2018-May-15 20:30N 29°41' W 094°10'3 6.1
2018-May-15 20:00N 29°43' W 094°07'3 6.2
2018-May-15 19:30N 29°45' W 094°04'3 6.3
2018-May-15 19:00N 29°47' W 094°01'3 6.2
2018-May-15 18:30N 29°49' W 093°59'3 5.4
2018-May-15 18:00N 29°51' W 093°57'3 6.9
2018-May-15 17:31N 29°54' W 093°54'4 7.0
2018-May-15 17:01N 29°57' W 093°52'3 5.7
2018-May-15 16:30N 29°59' W 093°50'3 6.6
2018-May-15 16:00N 30°00' W 093°46'3 6.6
2018-May-15 15:30N 30°03' W 093°44'3 6.2
2018-May-15 15:00N 30°04' W 093°40'3 5.9
2018-May-15 14:30N 30°04' W 093°37'3 6.4
2018-May-15 14:00N 30°04' W 093°33'3 6.4
2018-May-15 13:30N 30°04' W 093°30'3 6.6
2018-May-15 13:00N 30°04' W 093°26'3 6.5
2018-May-15 12:30N 30°04' W 093°22'3 5.5
2018-May-15 12:00N 30°05' W 093°20'3 5.7
2018-May-15 11:30N 30°08' W 093°20'3 5.5
2018-May-15 11:00N 30°11' W 093°19'3 6.2
2018-May-15 10:30N 30°12' W 093°16'1 1.7
2018-May-15 10:00N 30°13' W 093°15'0 0.0
2018-May-15 09:24N 30°13' W 093°15'0 0.0
2018-May-15 05:18N 30°13' W 093°15'0 0.0
2018-May-15 04:42N 30°13' W 093°15'0 0.0
2018-May-15 03:12N 30°13' W 093°15'0 0.0
2018-May-15 03:00N 30°13' W 093°15'0 0.0
2018-May-15 02:24N 30°13' W 093°15'0 0.0
2018-May-15 02:00N 30°13' W 093°15'0 0.0
2018-May-15 01:30N 30°13' W 093°15'0 0.0
2018-May-15 01:00N 30°13' W 093°15'0 0.0
2018-May-15 00:30N 30°13' W 093°15'0 0.0
2018-May-15 00:00N 30°13' W 093°15'0 0.0
2018-May-14 23:30N 30°13' W 093°15'0 0.0
2018-May-14 22:51N 30°13' W 093°15'0 0.0
2018-May-14 22:30N 30°13' W 093°15'0 0.0
2018-May-14 21:48N 30°13' W 093°15'0 0.0
2018-May-14 21:27N 30°13' W 093°15'0 0.0
2018-May-14 20:57N 30°13' W 093°15'0 0.0
2018-May-14 20:27N 30°13' W 093°15'0 0.0
2018-May-14 19:39N 30°13' W 093°15'0 0.0
2018-May-14 19:27N 30°13' W 093°15'0 0.0
2018-May-14 18:57N 30°13' W 093°15'0 0.0
2018-May-14 18:24N 30°13' W 093°15'0 0.0
2018-May-14 16:56N 30°13' W 093°15'0 0.4
2018-May-14 16:30N 30°13' W 093°15'2 4.0
2018-May-14 16:00N 30°12' W 093°17'3 5.2
2018-May-14 15:30N 30°10' W 093°19'2 4.6
2018-May-14 15:01N 30°08' W 093°20'3 5.3
2018-May-14 14:30N 30°05' W 093°20'2 4.2
2018-May-14 14:01N 30°04' W 093°21'0 1.0
2018-May-14 13:30N 30°04' W 093°22'0 0.0
2018-May-14 13:00N 30°04' W 093°22'0 0.0
2018-May-14 12:30N 30°04' W 093°22'0 0.0
2018-May-14 11:54N 30°04' W 093°22'0 0.0
2018-May-14 11:27N 30°04' W 093°22'0 0.0
2018-May-14 11:00N 30°04' W 093°22'0 0.0
2018-May-14 10:30N 30°04' W 093°22'0 0.0
2018-May-14 10:00N 30°04' W 093°22'0 0.0
2018-May-14 09:27N 30°04' W 093°22'0 0.0
2018-May-14 09:00N 30°04' W 093°22'0 0.0
2018-May-14 08:30N 30°04' W 093°22'0 0.0
2018-May-14 08:00N 30°04' W 093°22'0 0.0
2018-May-14 07:30N 30°04' W 093°22'0 0.0
2018-May-14 07:00N 30°04' W 093°22'0 0.0
2018-May-14 06:30N 30°04' W 093°22'0 0.0
2018-May-14 06:00N 30°04' W 093°22'0 0.0
2018-May-14 05:30N 30°04' W 093°22'0 0.0
2018-May-14 05:00N 30°04' W 093°22'0 0.0
2018-May-14 04:30N 30°04' W 093°22'0 0.0
2018-May-14 04:00N 30°04' W 093°22'0 0.0
2018-May-14 03:30N 30°04' W 093°22'0 0.0
2018-May-14 03:00N 30°04' W 093°22'0 0.0
2018-May-14 02:30N 30°04' W 093°22'0 0.0
2018-May-14 02:00N 30°04' W 093°22'0 0.0
2018-May-14 01:30N 30°04' W 093°22'0 0.0
2018-May-14 01:00N 30°04' W 093°22'0 0.0
2018-May-14 00:30N 30°04' W 093°22'0 0.0
2018-May-14 00:00N 30°04' W 093°22'0 0.0
2018-May-13 23:30N 30°04' W 093°22'0 0.0
2018-May-13 23:00N 30°04' W 093°22'0 0.0
2018-May-13 22:30N 30°04' W 093°22'0 0.0
2018-May-13 22:00N 30°04' W 093°22'0 0.0
2018-May-13 21:30N 30°04' W 093°22'0 0.0
2018-May-13 20:57N 30°04' W 093°22'0 0.0
2018-May-13 20:30N 30°04' W 093°22'0 0.0
2018-May-13 20:00N 30°04' W 093°22'0 0.0
2018-May-13 19:30N 30°04' W 093°22'0 0.0
2018-May-13 19:00N 30°04' W 093°22'0 0.0
2018-May-13 18:30N 30°04' W 093°22'0 0.0
2018-May-13 17:57N 30°04' W 093°22'0 0.0
2018-May-13 17:30N 30°04' W 093°22'0 0.0
2018-May-13 16:57N 30°04' W 093°22'0 0.0
2018-May-13 16:30N 30°04' W 093°22'0 0.0
2018-May-13 16:00N 30°04' W 093°22'0 0.0
2018-May-13 15:30N 30°04' W 093°22'0 0.0
2018-May-13 15:00N 30°04' W 093°22'0 0.0
2018-May-13 14:30N 30°04' W 093°22'0 0.0
2018-May-13 14:00N 30°04' W 093°22'0 0.0
2018-May-13 13:30N 30°04' W 093°22'0 0.0
2018-May-13 13:00N 30°04' W 093°22'0 0.0
2018-May-13 12:30N 30°04' W 093°22'0 0.3
2018-May-13 12:00N 30°04' W 093°22'0 0.3
2018-May-13 11:25N 30°04' W 093°22'0 0.0
2018-May-13 10:58N 30°04' W 093°22'0 0.0
2018-May-13 10:28N 30°04' W 093°22'0 0.0
2018-May-13 09:58N 30°04' W 093°22'0 0.0
2018-May-13 09:28N 30°04' W 093°22'0 0.0
2018-May-13 08:58N 30°04' W 093°22'0 0.0
2018-May-13 08:25N 30°04' W 093°22'0 0.0
2018-May-13 07:58N 30°04' W 093°22'0 0.0
2018-May-13 07:28N 30°04' W 093°22'0 0.0
2018-May-13 06:58N 30°04' W 093°22'0 0.0
2018-May-13 06:28N 30°04' W 093°22'0 0.0
2018-May-13 05:58N 30°04' W 093°22'0 0.0
2018-May-13 05:28N 30°04' W 093°22'0 0.0
2018-May-13 04:58N 30°04' W 093°22'0 0.0
2018-May-13 04:28N 30°04' W 093°22'0 0.0
2018-May-13 03:58N 30°04' W 093°22'0 0.0
2018-May-13 03:28N 30°04' W 093°22'0 0.0
2018-May-13 02:58N 30°04' W 093°22'0 0.0
2018-May-13 02:28N 30°04' W 093°22'0 0.0
2018-May-13 01:58N 30°04' W 093°22'0 0.0
2018-May-13 01:28N 30°04' W 093°22'0 0.0
2018-May-13 00:58N 30°04' W 093°22'0 0.0
2018-May-13 00:28N 30°04' W 093°22'0 0.0
2018-May-12 23:58N 30°04' W 093°22'0 0.0
2018-May-12 23:28N 30°04' W 093°22'0 0.0
2018-May-12 22:58N 30°04' W 093°22'0 0.0
2018-May-12 22:28N 30°04' W 093°22'0 0.0
2018-May-12 21:58N 30°04' W 093°22'0 0.0
2018-May-12 21:28N 30°04' W 093°22'0 0.0
2018-May-12 20:58N 30°04' W 093°22'0 0.0
2018-May-12 20:28N 30°04' W 093°22'0 0.0
2018-May-12 19:58N 30°04' W 093°22'0 0.0
2018-May-12 19:28N 30°04' W 093°22'0 0.0
2018-May-12 18:58N 30°04' W 093°22'0 0.0
2018-May-12 18:28N 30°04' W 093°22'0 0.0
2018-May-12 17:58N 30°04' W 093°22'0 0.0
2018-May-12 17:28N 30°04' W 093°22'0 0.0
2018-May-12 16:58N 30°04' W 093°22'0 0.0
2018-May-12 16:28N 30°04' W 093°22'0 0.0
2018-May-12 16:00N 30°04' W 093°22'0 0.0
2018-May-12 15:30N 30°04' W 093°22'0 0.8
2018-May-12 14:58N 30°04' W 093°21'0 0.9
2018-May-12 14:28N 30°04' W 093°22'0 0.0
2018-May-12 13:58N 30°04' W 093°22'0 0.0
2018-May-12 13:25N 30°04' W 093°22'0 0.0
2018-May-12 12:58N 30°04' W 093°22'0 0.0
2018-May-12 12:28N 30°04' W 093°22'0 0.0
2018-May-12 11:58N 30°04' W 093°22'0 0.0
2018-May-12 11:28N 30°04' W 093°22'0 0.0
2018-May-12 10:43N 30°04' W 093°22'0 0.0
2018-May-12 10:25N 30°04' W 093°22'0 0.0
2018-May-12 09:52N 30°04' W 093°22'0 0.0
2018-May-12 09:25N 30°04' W 093°22'0 0.0
2018-May-12 08:58N 30°04' W 093°22'0 0.0
2018-May-12 08:31N 30°04' W 093°22'0 0.0
2018-May-12 08:01N 30°04' W 093°22'0 0.0
2018-May-12 07:31N 30°04' W 093°22'0 0.0
2018-May-12 06:55N 30°04' W 093°22'0 0.0
2018-May-12 06:25N 30°04' W 093°22'0 0.0
2018-May-12 05:55N 30°04' W 093°22'0 0.0
2018-May-12 05:28N 30°04' W 093°22'0 0.0
2018-May-12 05:01N 30°04' W 093°22'0 0.0
2018-May-12 04:25N 30°04' W 093°22'0 0.0
2018-May-12 04:01N 30°04' W 093°22'0 0.0
2018-May-12 03:31N 30°04' W 093°22'0 0.0
2018-May-12 03:01N 30°04' W 093°22'0 0.0
2018-May-12 02:31N 30°04' W 093°22'0 0.0
2018-May-12 01:58N 30°04' W 093°22'0 0.0
2018-May-12 01:31N 30°04' W 093°22'0 0.0
2018-May-12 01:01N 30°04' W 093°22'0 0.0
2018-May-12 00:31N 30°04' W 093°22'0 0.0
2018-May-12 00:01N 30°04' W 093°22'0 0.0
2018-May-11 23:31N 30°04' W 093°22'0 0.0
2018-May-11 23:01N 30°04' W 093°22'0 0.2
2018-May-11 22:31N 30°04' W 093°22'0 0.6
2018-May-11 21:58N 30°04' W 093°21'0 0.0
2018-May-11 21:28N 30°04' W 093°21'0 0.0
2018-May-11 20:58N 30°04' W 093°21'0 0.0
2018-May-11 20:28N 30°04' W 093°21'0 0.0
2018-May-11 19:58N 30°04' W 093°21'0 0.0
2018-May-11 19:28N 30°04' W 093°21'0 0.0
2018-May-11 18:58N 30°04' W 093°21'0 0.0
2018-May-11 18:28N 30°04' W 093°21'0 0.7
2018-May-11 18:00N 30°04' W 093°22'0 0.2
2018-May-11 17:29N 30°04' W 093°22'0 0.0
2018-May-11 16:56N 30°04' W 093°22'0 0.0
2018-May-11 16:29N 30°04' W 093°22'0 0.1
2018-May-11 15:58N 30°04' W 093°22'2 5.2
2018-May-11 15:30N 30°05' W 093°20'2 3.4
2018-May-11 15:00N 30°06' W 093°18'0 0.0
2018-May-11 14:30N 30°06' W 093°18'0 0.0
2018-May-11 14:00N 30°06' W 093°18'2 4.3
2018-May-11 13:30N 30°05' W 093°20'2 3.7
2018-May-11 12:58N 30°04' W 093°22'0 0.0
2018-May-11 12:28N 30°04' W 093°22'0 0.0
2018-May-11 11:58N 30°04' W 093°22'0 0.0
2018-May-11 11:28N 30°04' W 093°22'0 0.0
2018-May-11 10:58N 30°04' W 093°22'0 0.0
2018-May-11 10:28N 30°04' W 093°22'0 0.0
2018-May-11 09:58N 30°04' W 093°22'0 0.0
2018-May-11 09:28N 30°04' W 093°22'0 0.0
2018-May-11 08:58N 30°04' W 093°22'0 0.0
2018-May-11 08:28N 30°04' W 093°22'0 0.0
2018-May-11 07:58N 30°04' W 093°22'0 0.0
2018-May-11 07:28N 30°04' W 093°22'0 0.0
2018-May-11 06:58N 30°04' W 093°22'0 0.0
2018-May-11 06:25N 30°04' W 093°22'0 0.0
2018-May-11 05:55N 30°04' W 093°22'0 0.0
2018-May-11 05:28N 30°04' W 093°22'0 0.0
2018-May-11 04:58N 30°04' W 093°22'0 0.0
2018-May-11 04:28N 30°04' W 093°22'  

Dump ship's entire track history